Time;durP1;ratioP1;P1;durP2;ratioP2;P2;SDS_P1;SDS_P2;PMS_P1;PMS_P2;Temp;Humidity;BMP_temperature;BMP_pressure;BME280_temperature;BME280_humidity;BME280_pressure;Samples;Min_cycle;Max_cycle;Signal;HPM_P1;HPM_P2
2022/05/08 00:02:21;;;;;;;0.67;0.67;;;12.30;99.90;;;;;;5073193;28;20806;-70
2022/05/08 00:04:51;;;;;;;0.30;0.30;;;12.20;99.90;;;;;;5073235;28;20491;-70
2022/05/08 00:07:17;;;;;;;0.30;0.30;;;12.30;99.90;;;;;;5073296;28;20220;-71
2022/05/08 00:09:44;;;;;;;0.80;0.80;;;12.40;99.50;;;;;;5073106;28;20404;-71
2022/05/08 00:12:13;;;;;;;0.30;0.30;;;12.50;99.10;;;;;;5073158;28;20431;-71
2022/05/08 00:14:39;;;;;;;0.30;0.30;;;12.60;98.30;;;;;;5071872;28;20419;-71
2022/05/08 00:17:05;;;;;;;0.30;0.30;;;12.70;97.80;;;;;;5073115;28;20434;-70
2022/05/08 00:19:31;;;;;;;2.10;2.00;;;12.80;98.10;;;;;;5073171;28;20407;-70
2022/05/08 00:21:56;;;;;;;0.50;0.50;;;12.90;97.20;;;;;;5072755;28;20434;-70
2022/05/08 00:24:22;;;;;;;0.40;0.40;;;13.00;96.80;;;;;;5071712;28;20186;-71
2022/05/08 00:26:48;;;;;;;0.30;0.30;;;13.10;96.90;;;;;;5072911;28;20180;-71
2022/05/08 00:29:15;;;;;;;0.30;0.30;;;13.00;97.30;;;;;;5073010;28;20232;-69
2022/05/08 00:31:41;;;;;;;0.30;0.30;;;13.00;96.90;;;;;;5072832;28;20189;-70
2022/05/08 00:34:08;;;;;;;0.40;0.40;;;13.10;97.20;;;;;;5072958;28;20482;-71
2022/05/08 00:36:34;;;;;;;0.43;0.43;;;13.10;96.40;;;;;;5073161;28;20767;-70
2022/05/08 00:38:59;;;;;;;0.43;0.43;;;13.10;97.00;;;;;;5074881;28;20418;-70
2022/05/08 00:41:25;;;;;;;0.47;0.47;;;13.10;97.10;;;;;;5076326;28;20197;-70
2022/05/08 00:43:50;;;;;;;0.30;0.30;;;13.10;96.50;;;;;;5076734;28;20256;-71
2022/05/08 00:46:16;;;;;;;0.40;0.40;;;13.10;97.00;;;;;;5076824;28;20568;-69
2022/05/08 00:48:43;;;;;;;0.40;0.40;;;13.10;97.00;;;;;;5075308;28;20208;-71
2022/05/08 00:51:12;;;;;;;0.30;0.30;;;13.00;96.30;;;;;;5076235;28;20175;-70
2022/05/08 00:53:42;;;;;;;0.30;0.30;;;13.00;97.00;;;;;;5076381;28;20465;-71
2022/05/08 00:56:09;;;;;;;0.30;0.30;;;13.00;96.00;;;;;;5076549;28;20410;-70
2022/05/08 00:58:36;;;;;;;0.30;0.30;;;13.00;96.00;;;;;;5076330;28;20869;-71
2022/05/08 01:01:03;;;;;;;1.27;0.63;;;13.10;96.20;;;;;;5076480;28;20487;-69
2022/05/08 01:03:28;;;;;;;0.40;0.40;;;13.20;95.80;;;;;;5076118;28;20427;-71
2022/05/08 01:05:55;;;;;;;0.30;0.30;;;13.30;96.30;;;;;;5076234;28;20474;-70
2022/05/08 01:08:22;;;;;;;0.30;0.30;;;13.20;96.70;;;;;;5076274;28;20252;-70
2022/05/08 01:10:48;;;;;;;0.80;0.80;;;13.20;96.30;;;;;;5075882;28;20429;-71
2022/05/08 01:13:14;;;;;;;0.40;0.40;;;13.30;96.00;;;;;;5076107;28;20838;-71
2022/05/08 01:15:42;;;;;;;0.80;0.80;;;13.30;95.40;;;;;;5074798;28;20443;-72
2022/05/08 01:18:08;;;;;;;0.50;0.50;;;13.30;95.80;;;;;;5076041;28;20410;-71
2022/05/08 01:20:34;;;;;;;0.30;0.30;;;13.30;95.70;;;;;;5075852;28;20497;-71
2022/05/08 01:23:05;;;;;;;0.40;0.40;;;13.30;95.80;;;;;;5074472;28;20463;-71
2022/05/08 01:25:32;;;;;;;0.30;0.30;;;13.30;96.20;;;;;;5076029;28;20458;-69
2022/05/08 01:27:59;;;;;;;0.70;0.70;;;13.30;95.30;;;;;;5076127;28;20415;-70
2022/05/08 01:30:25;;;;;;;0.40;0.40;;;13.30;95.30;;;;;;5075561;28;20403;-70
2022/05/08 01:32:50;;;;;;;0.30;0.30;;;13.20;94.80;;;;;;5075727;28;20899;-70
2022/05/08 01:35:16;;;;;;;0.30;0.30;;;13.30;94.90;;;;;;5075564;28;20415;-70
2022/05/08 01:37:42;;;;;;;0.30;0.30;;;13.40;94.70;;;;;;5075792;28;20181;-71
2022/05/08 01:40:08;;;;;;;0.30;0.30;;;13.40;95.10;;;;;;5075564;28;20251;-70
2022/05/08 01:42:33;;;;;;;0.40;0.40;;;13.30;96.40;;;;;;5075418;28;20547;-71
2022/05/08 01:44:59;;;;;;;1.37;1.37;;;13.20;96.50;;;;;;5075338;28;20450;-71
2022/05/08 01:50:09;;;;;;;0.30;0.30;;;13.00;95.00;;;;;;5074854;28;20243;-71
2022/05/08 01:52:35;;;;;;;0.40;0.40;;;13.10;95.40;;;;;;5075250;28;20423;-71
2022/05/08 01:55:01;;;;;;;0.30;0.30;;;13.20;95.60;;;;;;5075359;28;20410;-70
2022/05/08 01:57:27;;;;;;;0.30;0.30;;;13.20;95.00;;;;;;5075456;28;20177;-71
2022/05/08 01:59:53;;;;;;;0.40;0.40;;;13.20;94.80;;;;;;5073702;28;20463;-70
2022/05/08 02:02:19;;;;;;;0.87;0.87;;;13.40;94.20;;;;;;5075272;28;20522;-70
2022/05/08 02:04:45;;;;;;;0.40;0.40;;;13.40;94.40;;;;;;5074958;28;20219;-70
2022/05/08 02:07:11;;;;;;;0.30;0.30;;;13.40;94.30;;;;;;5075146;28;20446;-69
2022/05/08 02:09:37;;;;;;;0.30;0.30;;;13.30;94.60;;;;;;5075008;28;20432;-70
2022/05/08 02:12:04;;;;;;;0.50;0.50;;;13.30;94.90;;;;;;5074771;28;20184;-70
2022/05/08 02:14:29;;;;;;;0.40;0.40;;;13.30;94.50;;;;;;5074902;28;20438;-71
2022/05/08 02:16:55;;;;;;;0.60;0.60;;;13.20;95.00;;;;;;5074921;28;20411;-70
2022/05/08 02:19:21;;;;;;;0.40;0.40;;;13.10;94.40;;;;;;5074750;28;20181;-71
2022/05/08 02:21:47;;;;;;;0.40;0.40;;;13.30;94.60;;;;;;5074518;28;20193;-71
2022/05/08 02:24:13;;;;;;;0.30;0.30;;;13.20;94.20;;;;;;5074513;28;20434;-70
2022/05/08 02:26:39;;;;;;;0.30;0.30;;;13.30;93.90;;;;;;5074787;28;20872;-71
2022/05/08 02:29:05;;;;;;;0.30;0.30;;;13.30;94.10;;;;;;5074681;28;20255;-70
2022/05/08 02:31:31;;;;;;;0.40;0.40;;;13.40;94.50;;;;;;5074251;28;20185;-70
2022/05/08 02:33:57;;;;;;;0.40;0.40;;;13.20;94.00;;;;;;5074423;28;20433;-70
2022/05/08 02:36:22;;;;;;;0.30;0.30;;;13.20;94.10;;;;;;5074474;28;20911;-69
2022/05/08 02:38:48;;;;;;;0.53;0.53;;;13.20;94.30;;;;;;5074569;28;20180;-70
2022/05/08 02:41:14;;;;;;;0.30;0.30;;;13.20;94.50;;;;;;5074211;28;20223;-71
2022/05/08 02:43:39;;;;;;;0.30;0.30;;;13.20;94.60;;;;;;5074313;28;20178;-71
2022/05/08 02:46:05;;;;;;;0.30;0.30;;;13.20;94.40;;;;;;5074386;28;20565;-72
2022/05/08 02:48:30;;;;;;;1.37;1.27;;;13.30;94.40;;;;;;5074142;28;20177;-70
2022/05/08 02:50:57;;;;;;;0.40;0.40;;;13.40;94.40;;;;;;5074311;28;20170;-70
2022/05/08 02:53:23;;;;;;;0.40;0.40;;;13.30;94.40;;;;;;5074021;28;20196;-70
2022/05/08 02:58:32;;;;;;;0.40;0.40;;;13.30;94.30;;;;;;5074566;28;20180;-70
2022/05/08 03:01:02;;;;;;;0.40;0.40;;;13.20;94.40;;;;;;5073897;28;20416;-70
2022/05/08 03:03:28;;;;;;;0.70;0.60;;;13.30;94.10;;;;;;5073530;28;20283;-70
2022/05/08 03:05:54;;;;;;;0.33;0.33;;;13.20;94.20;;;;;;5072581;28;20453;-70
2022/05/08 03:08:20;;;;;;;0.40;0.40;;;13.20;94.20;;;;;;5073947;28;20432;-70
2022/05/08 03:13:35;;;;;;;0.50;0.50;;;13.20;94.80;;;;;;5074094;28;20769;-71
2022/05/08 03:16:01;;;;;;;0.30;0.30;;;13.30;94.80;;;;;;5073781;28;20791;-70
2022/05/08 03:18:27;;;;;;;1.60;1.50;;;13.30;94.30;;;;;;5073780;28;20784;-71
2022/05/08 03:20:52;;;;;;;0.50;0.50;;;13.30;94.50;;;;;;5073510;28;20416;-71
2022/05/08 03:23:18;;;;;;;0.30;0.30;;;13.30;94.80;;;;;;5073494;28;20627;-69
2022/05/08 03:25:44;;;;;;;0.30;0.30;;;13.10;95.80;;;;;;5073693;28;20205;-71
2022/05/08 03:28:10;;;;;;;0.30;0.30;;;13.10;95.30;;;;;;5072453;28;20173;-71
2022/05/08 03:30:36;;;;;;;0.30;0.30;;;13.00;95.30;;;;;;5073464;28;20768;-70
2022/05/08 03:33:01;;;;;;;0.87;0.87;;;13.10;95.10;;;;;;5073496;28;20435;-70
2022/05/08 03:35:27;;;;;;;0.30;0.30;;;13.00;94.50;;;;;;5073664;28;20176;-71
2022/05/08 03:37:53;;;;;;;0.30;0.30;;;13.00;94.70;;;;;;5073611;28;20176;-70
2022/05/08 03:40:18;;;;;;;0.30;0.30;;;13.00;94.90;;;;;;5072153;28;20243;-70
2022/05/08 03:42:44;;;;;;;0.30;0.30;;;13.00;94.90;;;;;;5073322;28;20198;-71
2022/05/08 03:45:10;;;;;;;0.30;0.30;;;12.90;94.60;;;;;;5072305;28;20203;-70
2022/05/08 03:47:35;;;;;;;0.33;0.33;;;13.00;94.60;;;;;;5073642;28;20176;-71
2022/05/08 03:50:02;;;;;;;0.40;0.40;;;13.00;94.90;;;;;;5073300;28;20434;-71
2022/05/08 03:52:28;;;;;;;0.37;0.37;;;12.70;94.80;;;;;;5073479;28;20199;-72
2022/05/08 03:54:53;;;;;;;0.30;0.30;;;12.70;94.80;;;;;;5073268;28;20416;-71
2022/05/08 03:57:19;;;;;;;0.40;0.40;;;12.60;94.80;;;;;;5073516;28;20871;-70
2022/05/08 03:59:45;;;;;;;2.20;2.10;;;12.70;94.80;;;;;;5073402;28;20536;-70
2022/05/08 04:02:10;;;;;;;0.30;0.30;;;12.70;95.10;;;;;;5073101;28;20204;-70
2022/05/08 04:04:36;;;;;;;0.30;0.30;;;12.60;95.10;;;;;;5073155;28;20201;-69
2022/05/08 04:07:02;;;;;;;0.30;0.30;;;12.50;95.20;;;;;;5073353;28;20206;-69
2022/05/08 04:09:28;;;;;;;0.70;0.70;;;12.50;95.20;;;;;;5073353;28;20169;-70
2022/05/08 04:11:53;;;;;;;0.30;0.30;;;12.40;96.40;;;;;;5072915;28;20459;-70
2022/05/08 04:14:19;;;;;;;0.50;0.50;;;12.30;95.80;;;;;;5075618;28;20447;-70
2022/05/08 04:16:47;;;;;;;0.30;0.30;;;12.30;95.20;;;;;;5077170;28;20177;-71
2022/05/08 04:19:12;;;;;;;0.30;0.30;;;12.30;96.40;;;;;;5077275;28;20615;-70
2022/05/08 04:21:38;;;;;;;0.30;0.30;;;12.30;95.90;;;;;;5076731;28;20427;-71
2022/05/08 04:24:19;;;;;;;0.30;0.30;;;12.30;95.80;;;;;;5076847;28;20189;-71
2022/05/08 04:26:47;;;;;;;0.30;0.30;;;12.30;96.10;;;;;;5077127;28;20262;-71
2022/05/08 04:29:12;;;;;;;0.30;0.30;;;12.30;96.20;;;;;;5076867;28;20396;-71
2022/05/08 04:31:38;;;;;;;0.60;0.60;;;12.30;96.70;;;;;;5076809;28;20412;-71
2022/05/08 04:34:04;;;;;;;0.30;0.30;;;12.20;97.60;;;;;;5076699;28;20173;-71
2022/05/08 04:36:30;;;;;;;0.30;0.30;;;12.10;97.40;;;;;;5076742;28;20173;-71
2022/05/08 04:38:56;;;;;;;0.30;0.30;;;12.20;96.60;;;;;;5076838;28;20416;-71
2022/05/08 04:41:22;;;;;;;1.43;1.43;;;12.20;96.00;;;;;;5075130;28;20948;-69
2022/05/08 04:43:47;;;;;;;0.83;0.60;;;12.30;95.80;;;;;;5076504;28;20511;-71
2022/05/08 04:46:13;;;;;;;0.30;0.30;;;12.50;96.10;;;;;;5076293;28;20202;-69
2022/05/08 04:48:41;;;;;;;0.30;0.30;;;12.50;96.70;;;;;;5076606;28;20261;-69
2022/05/08 04:51:07;;;;;;;0.30;0.30;;;12.40;96.00;;;;;;5076010;28;20622;-71
2022/05/08 04:53:33;;;;;;;0.50;0.50;;;12.50;95.60;;;;;;5076447;28;20457;-70
2022/05/08 04:55:59;;;;;;;0.30;0.30;;;12.70;95.30;;;;;;5076361;28;20412;-70
2022/05/08 04:58:29;;;;;;;0.40;0.40;;;13.00;95.10;;;;;;5076330;28;20174;-71
2022/05/08 05:00:57;;;;;;;0.40;0.40;;;13.40;94.60;;;;;;5076289;28;20619;-70
2022/05/08 05:03:24;;;;;;;0.40;0.40;;;13.90;93.80;;;;;;5076154;28;20435;-70
2022/05/08 05:05:49;;;;;;;0.30;0.30;;;14.20;93.00;;;;;;5076219;28;20474;-71
2022/05/08 05:08:15;;;;;;;0.73;0.73;;;14.20;92.50;;;;;;5076095;28;20923;-71
2022/05/08 05:10:40;;;;;;;0.53;0.53;;;14.30;92.40;;;;;;5075816;28;20209;-71
2022/05/08 05:13:06;;;;;;;1.13;0.70;;;14.30;92.20;;;;;;5075973;28;20188;-70
2022/05/08 05:15:32;;;;;;;0.30;0.30;;;14.10;92.00;;;;;;5076213;28;20171;-71
2022/05/08 05:18:01;;;;;;;0.60;0.60;;;14.30;92.90;;;;;;5075840;28;20211;-70
2022/05/08 05:20:27;;;;;;;0.90;0.90;;;14.50;92.60;;;;;;5075851;28;20170;-71
2022/05/08 05:22:52;;;;;;;0.30;0.30;;;14.70;92.50;;;;;;5075763;28;20466;-69
2022/05/08 05:25:18;;;;;;;1.17;1.13;;;14.90;92.60;;;;;;5074639;28;20806;-70
2022/05/08 05:27:45;;;;;;;0.30;0.30;;;15.20;91.60;;;;;;5075845;28;20673;-69
2022/05/08 05:30:11;;;;;;;0.50;0.50;;;15.40;90.80;;;;;;5075751;28;20400;-70
2022/05/08 05:32:39;;;;;;;0.40;0.40;;;15.50;90.50;;;;;;5075821;28;20766;-70
2022/05/08 05:35:05;;;;;;;0.37;0.37;;;15.60;91.30;;;;;;5075600;28;20494;-72
2022/05/08 05:37:31;;;;;;;0.30;0.30;;;15.70;90.50;;;;;;5075607;28;20947;-71
2022/05/08 05:39:56;;;;;;;0.30;0.30;;;15.70;90.30;;;;;;5075615;28;20449;-70
2022/05/08 05:42:23;;;;;;;0.50;0.50;;;16.00;89.80;;;;;;5075244;28;20193;-70
2022/05/08 05:44:49;;;;;;;0.30;0.30;;;16.40;89.00;;;;;;5074150;28;20248;-70
2022/05/08 05:49:59;;;;;;;0.50;0.50;;;16.70;86.70;;;;;;5075252;28;20180;-71
2022/05/08 05:52:24;;;;;;;0.30;0.30;;;17.10;86.60;;;;;;5075532;28;20853;-72
2022/05/08 05:54:50;;;;;;;0.30;0.30;;;17.40;84.70;;;;;;5075661;28;20242;-72
2022/05/08 05:57:16;;;;;;;0.40;0.40;;;17.30;82.80;;;;;;5075211;28;20172;-71
2022/05/08 05:59:41;;;;;;;0.30;0.30;;;18.10;84.80;;;;;;5075587;28;20618;-71
2022/05/08 06:02:08;;;;;;;0.43;0.43;;;19.00;81.30;;;;;;5074753;28;20243;-72
2022/05/08 06:04:33;;;;;;;0.37;0.37;;;19.50;79.00;;;;;;5075196;28;20180;-71
2022/05/08 06:06:59;;;;;;;0.97;0.50;;;20.20;76.50;;;;;;5074373;28;20896;-68
2022/05/08 06:09:25;;;;;;;0.47;0.47;;;20.90;72.90;;;;;;5073135;28;20167;-67
2022/05/08 06:11:53;;;;;;;0.30;0.30;;;20.90;70.70;;;;;;5074843;28;20191;-65
2022/05/08 06:14:18;;;;;;;0.30;0.30;;;20.20;72.00;;;;;;5074036;28;20714;-65
2022/05/08 06:16:44;;;;;;;0.60;0.60;;;19.20;74.30;;;;;;5073139;28;20405;-64
2022/05/08 06:19:10;;;;;;;0.40;0.40;;;18.10;76.40;;;;;;5074614;28;20414;-64
2022/05/08 06:21:36;;;;;;;0.50;0.50;;;17.30;80.40;;;;;;5073759;28;20197;-63
2022/05/08 06:24:02;;;;;;;0.30;0.30;;;16.80;81.10;;;;;;5072483;28;20189;-64
2022/05/08 06:26:27;;;;;;;0.30;0.30;;;16.60;83.90;;;;;;5074874;28;20459;-64
2022/05/08 06:28:55;;;;;;;0.30;0.30;;;16.60;85.40;;;;;;5074094;28;20199;-64
2022/05/08 06:31:21;;;;;;;0.63;0.63;;;16.60;84.90;;;;;;5071380;28;20169;-63
2022/05/08 06:33:47;;;;;;;0.53;0.53;;;16.60;85.30;;;;;;5074712;28;20403;-63
2022/05/08 06:36:13;;;;;;;0.30;0.30;;;16.70;86.20;;;;;;5073271;28;20412;-64
2022/05/08 06:38:39;;;;;;;0.30;0.30;;;16.70;86.30;;;;;;5073000;28;20181;-64
2022/05/08 06:41:05;;;;;;;0.30;0.30;;;16.80;85.80;;;;;;5074344;28;20412;-64
2022/05/08 06:43:30;;;;;;;0.30;0.30;;;17.00;86.20;;;;;;5074246;28;20428;-63
2022/05/08 06:45:56;;;;;;;1.70;0.87;;;17.10;86.60;;;;;;5074514;28;20204;-63
2022/05/08 06:48:22;;;;;;;0.30;0.30;;;17.20;86.40;;;;;;5074559;28;20572;-63
2022/05/08 06:50:47;;;;;;;0.30;0.30;;;17.40;85.50;;;;;;5074343;28;20198;-63
2022/05/08 06:53:13;;;;;;;0.30;0.30;;;17.50;85.80;;;;;;5074515;28;20193;-64
2022/05/08 06:55:39;;;;;;;0.40;0.40;;;17.60;84.70;;;;;;5074537;28;20179;-64
2022/05/08 06:58:05;;;;;;;0.30;0.30;;;17.60;83.30;;;;;;5074701;28;20204;-64
2022/05/08 07:03:15;;;;;;;0.37;0.37;;;17.50;83.20;;;;;;5074525;28;20200;-64
2022/05/08 07:05:47;;;;;;;0.30;0.30;;;17.40;84.10;;;;;;5074231;28;20459;-65
2022/05/08 07:08:14;;;;;;;0.80;0.80;;;17.20;82.30;;;;;;5074486;28;20173;-69
2022/05/08 07:10:40;;;;;;;0.30;0.30;;;17.20;81.30;;;;;;5072595;28;20796;-69
2022/05/08 07:13:06;;;;;;;0.30;0.30;;;17.70;81.50;;;;;;5071484;28;20434;-70
2022/05/08 07:15:32;;;;;;;0.40;0.40;;;19.10;79.30;;;;;;5073514;28;20409;-69
2022/05/08 07:17:58;;;;;;;0.30;0.30;;;20.50;74.40;;;;;;5072556;28;20415;-69
2022/05/08 07:20:23;;;;;;;0.67;0.63;;;20.80;71.30;;;;;;5073714;28;20187;-69
2022/05/08 07:22:49;;;;;;;0.30;0.30;;;21.30;68.30;;;;;;5073501;28;20223;-69
2022/05/08 07:25:15;;;;;;;0.30;0.30;;;21.40;67.40;;;;;;5073514;28;20285;-69
2022/05/08 07:27:42;;;;;;;0.50;0.50;;;21.50;67.40;;;;;;5073604;28;20211;-69
2022/05/08 07:30:08;;;;;;;0.40;0.40;;;21.40;65.20;;;;;;5073387;28;20198;-69
2022/05/08 07:32:35;;;;;;;0.30;0.30;;;20.00;66.10;;;;;;5073807;28;20585;-69
2022/05/08 07:37:45;;;;;;;0.83;0.83;;;19.70;71.90;;;;;;5073893;28;20530;-68
2022/05/08 07:40:12;;;;;;;0.30;0.30;;;19.80;72.20;;;;;;5073359;28;20505;-69
2022/05/08 07:42:38;;;;;;;0.30;0.30;;;20.10;71.80;;;;;;5072092;28;20533;-69
2022/05/08 07:45:05;;;;;;;0.40;0.40;;;20.30;67.90;;;;;;5073724;28;20534;-69
2022/05/08 07:47:31;;;;;;;0.30;0.30;;;19.70;67.40;;;;;;5073162;28;20882;-69
2022/05/08 07:49:57;;;;;;;0.30;0.30;;;19.90;69.30;;;;;;5073143;28;20737;-69
2022/05/08 07:52:23;;;;;;;0.50;0.50;;;20.90;68.10;;;;;;5073347;28;20431;-70
2022/05/08 07:54:49;;;;;;;0.30;0.30;;;21.50;65.40;;;;;;5073509;28;20383;-69
2022/05/08 07:57:15;;;;;;;0.73;0.73;;;21.70;68.90;;;;;;5073336;28;20177;-70
2022/05/08 07:59:41;;;;;;;0.83;0.83;;;21.70;64.70;;;;;;5073341;28;20169;-69
2022/05/08 08:02:08;;;;;;;0.30;0.30;;;21.70;62.10;;;;;;5071575;28;20397;-70
2022/05/08 08:04:34;;;;;;;0.80;0.80;;;20.40;62.60;;;;;;5072131;28;20431;-76
2022/05/08 08:07:03;;;;;;;0.50;0.50;;;19.80;65.40;;;;;;5073832;28;20433;-73
2022/05/08 08:09:29;;;;;;;0.33;0.33;;;20.00;66.40;;;;;;5073680;28;20760;-74
2022/05/08 08:11:55;;;;;;;0.77;0.77;;;19.70;66.70;;;;;;5072891;28;20436;-71
2022/05/08 08:14:21;;;;;;;0.30;0.30;;;20.30;67.80;;;;;;5072200;28;20416;-73
2022/05/08 08:16:47;;;;;;;0.30;0.30;;;21.50;63.70;;;;;;5073565;28;20755;-74
2022/05/08 08:19:13;;;;;;;0.60;0.60;;;21.90;60.90;;;;;;5073364;28;20254;-75
2022/05/08 08:21:39;;;;;;;0.40;0.40;;;22.20;59.20;;;;;;5071606;28;20410;-74
2022/05/08 08:24:05;;;;;;;0.37;0.37;;;22.20;59.70;;;;;;5073048;28;20427;-73
2022/05/08 08:26:30;;;;;;;0.30;0.30;;;22.00;58.50;;;;;;5072612;28;20205;-74
2022/05/08 08:28:56;;;;;;;0.30;0.30;;;21.10;59.50;;;;;;5070532;28;20907;-73
2022/05/08 08:31:22;;;;;;;0.30;0.30;;;20.70;60.80;;;;;;5070412;28;20267;-69
2022/05/08 08:33:48;;;;;;;0.43;0.43;;;19.70;61.80;;;;;;5071977;28;20274;-71
2022/05/08 08:36:14;;;;;;;0.30;0.30;;;19.30;64.20;;;;;;5072273;28;20898;-72
2022/05/08 08:38:40;;;;;;;0.53;0.53;;;19.80;63.50;;;;;;5070548;28;20408;-69
2022/05/08 08:41:07;;;;;;;0.40;0.40;;;20.00;67.10;;;;;;5072581;28;20576;-70
2022/05/08 08:49:20;;;;;;;0.70;0.50;;;20.50;60.70;;;;;;5073049;28;20410;-72
2022/05/08 08:51:48;;;;;;;0.30;0.30;;;20.30;64.70;;;;;;5072795;28;20431;-70
2022/05/08 08:54:16;;;;;;;1.23;1.13;;;20.70;62.90;;;;;;5073281;28;20407;-72
2022/05/08 08:56:41;;;;;;;0.30;0.30;;;20.60;61.70;;;;;;5073338;28;20424;-71
2022/05/08 08:59:09;;;;;;;3.03;1.27;;;20.10;63.90;;;;;;5073228;28;20905;-71
2022/05/08 09:01:45;;;;;;;0.30;0.30;;;19.90;64.00;;;;;;5074936;28;20189;-72
2022/05/08 09:04:11;;;;;;;0.40;0.40;;;19.50;64.80;;;;;;5074185;28;20417;-69
2022/05/08 09:06:39;;;;;;;0.40;0.40;;;19.40;64.60;;;;;;5076501;28;20504;-69
2022/05/08 09:09:24;;;;;;;0.30;0.30;;;19.20;66.50;;;;;;5076685;28;20434;-71
2022/05/08 09:11:51;;;;;;;0.40;0.40;;;19.40;66.40;;;;;;5076094;28;20521;-70
2022/05/08 09:14:33;;;;;;;0.40;0.40;;;19.30;64.70;;;;;;5076132;28;20418;-71
2022/05/08 09:17:04;;;;;;;0.30;0.30;;;19.30;65.40;;;;;;5076395;28;20876;-71
2022/05/08 09:19:37;;;;;;;0.70;0.50;;;19.30;67.20;;;;;;5076539;28;20408;-69
2022/05/08 09:22:04;;;;;;;0.30;0.30;;;20.20;65.60;;;;;;5074110;28;20518;-70
2022/05/08 09:24:30;;;;;;;0.40;0.40;;;20.70;62.90;;;;;;5073524;28;20419;-71
2022/05/08 09:27:12;;;;;;;0.30;0.30;;;20.60;63.40;;;;;;5074784;28;20387;-71
2022/05/08 09:29:38;;;;;;;0.40;0.40;;;20.20;63.50;;;;;;5073528;28;20462;-71
2022/05/08 09:32:04;;;;;;;0.30;0.30;;;19.60;65.00;;;;;;5073638;28;20435;-71
2022/05/08 09:34:30;;;;;;;0.30;0.30;;;20.00;64.50;;;;;;5075722;28;20404;-71
2022/05/08 09:37:12;;;;;;;0.43;0.43;;;20.60;64.30;;;;;;5075736;28;20462;-71
2022/05/08 09:39:37;;;;;;;0.30;0.30;;;22.40;64.10;;;;;;5075533;28;20528;-72
2022/05/08 09:42:03;;;;;;;0.30;0.30;;;23.10;57.50;;;;;;5074304;28;20522;-71
2022/05/08 09:44:29;;;;;;;0.30;0.30;;;22.90;57.30;;;;;;5073834;28;20218;-72
2022/05/08 09:46:57;;;;;;;0.30;0.30;;;22.60;58.00;;;;;;5075504;28;20743;-71
2022/05/08 09:49:24;;;;;;;0.30;0.30;;;21.80;57.20;;;;;;5075570;28;20514;-70
2022/05/08 09:51:51;;;;;;;0.30;0.30;;;21.20;57.70;;;;;;5074953;28;20436;-71
2022/05/08 09:54:18;;;;;;;0.30;0.30;;;20.50;58.70;;;;;;5075366;28;20499;-71
2022/05/08 09:56:46;;;;;;;0.70;0.60;;;20.30;61.40;;;;;;5075354;28;20416;-71
2022/05/08 09:59:12;;;;;;;0.30;0.30;;;20.30;61.90;;;;;;5075385;28;20413;-72
2022/05/08 10:01:41;;;;;;;0.30;0.30;;;20.10;62.90;;;;;;5074886;28;20453;-71
2022/05/08 10:04:07;;;;;;;0.30;0.30;;;20.40;63.90;;;;;;5075326;28;20419;-72
2022/05/08 10:06:36;;;;;;;0.40;0.40;;;20.70;61.10;;;;;;5073701;28;20488;-71
2022/05/08 10:14:35;;;;;;;0.30;0.30;;;21.50;60.70;;;;;;5075226;28;20360;-72
2022/05/08 10:17:02;;;;;;;2.10;1.33;;;21.60;62.40;;;;;;5074925;28;20439;-72
2022/05/08 10:19:28;;;;;;;0.50;0.50;;;21.50;64.10;;;;;;5074885;28;20378;-70
2022/05/08 10:21:56;;;;;;;0.67;0.67;;;20.90;62.70;;;;;;5074560;28;20808;-70
2022/05/08 10:24:36;;;;;;;0.30;0.30;;;20.30;64.40;;;;;;5074704;28;20188;-72
2022/05/08 10:27:11;;;;;;;0.30;0.30;;;19.10;67.90;;;;;;5074334;28;20449;-71
2022/05/08 10:29:41;;;;;;;0.30;0.30;;;18.80;69.70;;;;;;5074066;28;20486;-71
2022/05/08 10:32:09;;;;;;;0.30;0.30;;;18.90;68.90;;;;;;5073458;28;20832;-72
2022/05/08 10:34:37;;;;;;;0.30;0.30;;;18.80;71.40;;;;;;5074467;28;20406;-70
2022/05/08 10:37:12;;;;;;;0.30;0.30;;;18.90;70.80;;;;;;5074610;28;20402;-71
2022/05/08 10:39:47;;;;;;;0.30;0.30;;;19.30;67.80;;;;;;5074414;28;20411;-70
2022/05/08 10:42:28;;;;;;;0.30;0.30;;;19.20;67.80;;;;;;5074260;28;20825;-71
2022/05/08 10:44:54;;;;;;;0.30;0.30;;;19.40;69.80;;;;;;5074286;28;20490;-71
2022/05/08 10:47:36;;;;;;;0.50;0.50;;;19.60;69.50;;;;;;5074456;28;20853;-70
2022/05/08 10:50:03;;;;;;;0.30;0.30;;;19.80;67.20;;;;;;5073968;28;20408;-72
2022/05/08 10:52:32;;;;;;;0.30;0.30;;;19.50;68.20;;;;;;5074090;28;20427;-70
2022/05/08 10:55:04;;;;;;;0.40;0.40;;;18.90;67.90;;;;;;5074223;28;20891;-70
2022/05/08 10:57:30;;;;;;;0.30;0.30;;;18.80;69.30;;;;;;5074190;28;20402;-71
2022/05/08 10:59:56;;;;;;;0.30;0.30;;;18.70;71.40;;;;;;5074146;28;20769;-71
2022/05/08 11:02:42;;;;;;;0.30;0.30;;;18.70;70.90;;;;;;5073775;28;20441;-71
2022/05/08 11:05:12;;;;;;;1.43;1.43;;;18.50;70.60;;;;;;5073983;28;20816;-71
2022/05/08 11:07:39;;;;;;;0.50;0.50;;;18.40;72.60;;;;;;5074096;28;20406;-72
2022/05/08 11:10:16;;;;;;;1.13;1.13;;;18.40;71.60;;;;;;5073927;28;20403;-72
2022/05/08 11:13:15;;;;;;;0.30;0.30;;;18.40;73.00;;;;;;5073754;28;20444;-71
2022/05/08 11:15:41;;;;;;;0.30;0.30;;;18.30;71.70;;;;;;5061401;28;20504;-71
2022/05/08 11:18:12;;;;;;;0.40;0.40;;;18.10;72.80;;;;;;5072622;28;20495;-71
2022/05/08 11:20:57;;;;;;;0.30;0.30;;;17.60;73.00;;;;;;5073725;28;20651;-70
2022/05/08 11:23:25;;;;;;;0.30;0.30;;;17.50;75.30;;;;;;5072750;28;20447;-71
2022/05/08 11:25:53;;;;;;;0.30;0.30;;;17.40;75.30;;;;;;5073689;28;20455;-72
2022/05/08 11:28:21;;;;;;;0.40;0.40;;;17.30;72.80;;;;;;5073889;28;20408;-71
2022/05/08 11:30:50;;;;;;;0.30;0.30;;;17.30;72.70;;;;;;5073598;28;20787;-71
2022/05/08 11:36:06;;;;;;;0.30;0.30;;;17.60;72.80;;;;;;5073840;28;20943;-70
2022/05/08 11:38:41;;;;;;;0.30;0.30;;;17.80;72.70;;;;;;5073602;28;20419;-71
2022/05/08 11:41:12;;;;;;;0.30;0.30;;;17.70;72.30;;;;;;5073441;28;20424;-70
2022/05/08 11:43:43;;;;;;;0.57;0.47;;;17.70;73.80;;;;;;5073471;28;20396;-71
2022/05/08 11:46:13;;;;;;;0.83;0.60;;;17.30;75.90;;;;;;5073579;28;20580;-71
2022/05/08 11:48:42;;;;;;;0.30;0.30;;;17.40;75.40;;;;;;5073430;28;20495;-71
2022/05/08 11:51:09;;;;;;;0.30;0.30;;;17.50;74.40;;;;;;5073357;28;20403;-71
2022/05/08 11:53:52;;;;;;;0.30;0.30;;;17.50;74.50;;;;;;5073269;28;20428;-70
2022/05/08 11:56:32;;;;;;;0.30;0.30;;;17.30;73.70;;;;;;5073543;28;20435;-71
2022/05/08 11:59:03;;;;;;;0.33;0.33;;;17.20;73.60;;;;;;5073313;28;20411;-71
2022/05/08 12:01:29;;;;;;;1.00;1.00;;;17.10;74.00;;;;;;5073317;28;20760;-70
2022/05/08 12:03:57;;;;;;;0.50;0.50;;;16.90;77.40;;;;;;5071991;28;20435;-70
2022/05/08 12:06:23;;;;;;;0.70;0.50;;;17.00;76.40;;;;;;5073402;28;20222;-71
2022/05/08 12:08:49;;;;;;;0.30;0.30;;;17.20;76.50;;;;;;5073377;28;20541;-71
2022/05/08 12:11:33;;;;;;;0.30;0.30;;;17.40;76.30;;;;;;5072956;28;20808;-70
2022/05/08 12:14:08;;;;;;;0.30;0.30;;;17.40;74.30;;;;;;5073205;28;20400;-71
2022/05/08 12:16:35;;;;;;;0.30;0.30;;;17.00;74.90;;;;;;5073390;28;20438;-70
2022/05/08 12:19:11;;;;;;;0.40;0.40;;;16.90;76.50;;;;;;5073271;28;20427;-71
2022/05/08 12:21:38;;;;;;;0.30;0.30;;;16.90;78.60;;;;;;5072764;28;20437;-70
2022/05/08 12:24:11;;;;;;;0.30;0.30;;;17.00;77.60;;;;;;5072818;28;20467;-70
2022/05/08 12:26:37;;;;;;;2.33;2.20;;;17.10;76.30;;;;;;5073041;28;20459;-71
2022/05/08 12:29:07;;;;;;;0.30;0.30;;;17.20;78.60;;;;;;5073102;28;20404;-72
2022/05/08 12:31:33;;;;;;;0.40;0.40;;;17.50;78.90;;;;;;5072824;28;20482;-71
2022/05/08 12:33:59;;;;;;;0.40;0.40;;;17.80;79.50;;;;;;5073403;28;20861;-70
2022/05/08 12:36:25;;;;;;;1.63;0.83;;;18.00;78.90;;;;;;5076774;28;20415;-70
2022/05/08 12:38:50;;;;;;;0.60;0.60;;;17.90;77.80;;;;;;5076783;28;20189;-70
2022/05/08 12:41:16;;;;;;;0.30;0.30;;;17.90;77.10;;;;;;5076514;28;20537;-70
2022/05/08 12:43:42;;;;;;;0.50;0.50;;;17.80;77.90;;;;;;5076703;28;20174;-71
2022/05/08 12:46:07;;;;;;;0.30;0.30;;;17.70;76.90;;;;;;5076671;28;20193;-70
2022/05/08 12:48:34;;;;;;;0.40;0.40;;;17.50;79.20;;;;;;5076536;28;20177;-71
2022/05/08 12:50:59;;;;;;;0.30;0.30;;;17.10;78.30;;;;;;5076347;28;20169;-70
2022/05/08 12:53:25;;;;;;;0.40;0.40;;;17.10;78.40;;;;;;5076391;28;20484;-71
2022/05/08 12:55:51;;;;;;;0.30;0.30;;;17.00;78.50;;;;;;5076538;28;20533;-71
2022/05/08 13:01:00;;;;;;;0.30;0.30;;;17.20;80.40;;;;;;5076345;28;20563;-71
2022/05/08 13:03:26;;;;;;;0.60;0.60;;;17.50;80.80;;;;;;5076230;28;20518;-71
2022/05/08 13:05:52;;;;;;;0.30;0.30;;;17.60;79.10;;;;;;5076215;28;20212;-71
2022/05/08 13:08:17;;;;;;;0.30;0.30;;;17.60;78.90;;;;;;5075075;28;20624;-70
2022/05/08 13:10:44;;;;;;;6.87;2.30;;;17.50;79.50;;;;;;5076080;28;20229;-71
2022/05/08 13:13:10;;;;;;;1.07;0.97;;;17.30;78.90;;;;;;5074964;28;20800;-71
2022/05/08 13:15:36;;;;;;;0.30;0.30;;;17.20;81.20;;;;;;5076218;28;20416;-71
2022/05/08 13:18:01;;;;;;;0.30;0.30;;;17.10;81.60;;;;;;5076025;28;20534;-70
2022/05/08 13:20:27;;;;;;;0.40;0.40;;;16.80;79.90;;;;;;5075819;28;20311;-71
2022/05/08 13:22:53;;;;;;;0.30;0.30;;;16.60;81.40;;;;;;5075729;28;20244;-71